Time;durP1;ratioP1;P1;durP2;ratioP2;P2;SDS_P1;SDS_P2;PMS_P1;PMS_P2;Temp;Humidity;BMP_temperature;BMP_pressure;BME280_temperature;BME280_humidity;BME280_pressure;Samples;Min_cycle;Max_cycle;Signal;HPM_P1;HPM_P2
2024/02/22 00:01:07;;;;;;;13.47;13.13;;;;;;;;;;5018359;28;20850;-73
2024/02/22 00:03:35;;;;;;;14.23;13.83;;;;;;;;;;5020662;28;20466;-72
2024/02/22 00:06:03;;;;;;;15.00;14.60;;;;;;;;;;5016832;28;20463;-73
2024/02/22 00:08:30;;;;;;;14.37;13.97;;;;;;;;;;5016119;28;20539;-72
2024/02/22 00:10:58;;;;;;;13.67;13.27;;;;;;;;;;5023020;28;20465;-72
2024/02/22 00:13:25;;;;;;;13.47;13.13;;;;;;;;;;5024496;28;20504;-72
2024/02/22 00:15:51;;;;;;;13.43;13.13;;;;;;;;;;5024446;28;20500;-72
2024/02/22 00:18:18;;;;;;;12.83;12.53;;;;;;;;;;5029147;28;20476;-72
2024/02/22 00:20:47;;;;;;;14.10;13.70;;;;;;;;;;5022632;28;20469;-74
2024/02/22 00:23:14;;;;;;;13.07;12.77;;;;;;;;;;5026294;28;20825;-73
2024/02/22 00:25:41;;;;;;;13.20;12.90;;;;;;;;;;5021929;28;20786;-72
2024/02/22 00:28:08;;;;;;;13.37;13.07;;;;;;;;;;5028573;28;20500;-73
2024/02/22 00:30:36;;;;;;;13.50;13.20;;;;;;;;;;5027807;28;20465;-72
2024/02/22 00:33:03;;;;;;;12.63;12.33;;;;;;;;;;5024797;28;20584;-73
2024/02/22 00:35:30;;;;;;;11.93;11.63;;;;;;;;;;5025950;28;20465;-73
2024/02/22 00:37:59;;;;;;;12.60;12.30;;;;;;;;;;5027166;28;20868;-73
2024/02/22 00:40:26;;;;;;;12.57;12.27;;;;;;;;;;5029951;28;20795;-72
2024/02/22 00:42:53;;;;;;;12.57;12.27;;;;;;;;;;5024679;28;20471;-72
2024/02/22 00:45:20;;;;;;;13.23;12.93;;;;;;;;;;5029617;28;20471;-73
2024/02/22 00:47:48;;;;;;;12.40;12.10;;;;;;;;;;5026873;28;20481;-72
2024/02/22 00:50:15;;;;;;;13.10;12.80;;;;;;;;;;5028016;28;20474;-72
2024/02/22 00:52:42;;;;;;;12.97;12.67;;;;;;;;;;5023857;28;20556;-72
2024/02/22 00:55:11;;;;;;;12.33;12.03;;;;;;;;;;5023177;28;20792;-72
2024/02/22 00:57:39;;;;;;;12.80;12.50;;;;;;;;;;5025081;28;20551;-72
2024/02/22 01:00:07;;;;;;;12.90;12.60;;;;;;;;;;5020603;28;20813;-73
2024/02/22 01:02:34;;;;;;;12.30;12.00;;;;;;;;;;4993458;28;20470;-71
2024/02/22 01:05:01;;;;;;;13.53;13.17;;;;;;;;;;4994688;28;20475;-74
2024/02/22 01:07:29;;;;;;;12.80;12.50;;;;;;;;;;4994129;28;20633;-73
2024/02/22 01:09:56;;;;;;;13.13;12.83;;;;;;;;;;4994000;28;20520;-73
2024/02/22 01:12:24;;;;;;;11.73;11.43;;;;;;;;;;4994488;28;21083;-74
2024/02/22 01:14:52;;;;;;;12.27;11.97;;;;;;;;;;4994623;28;20453;-73
2024/02/22 01:17:19;;;;;;;11.47;11.23;;;;;;;;;;4993582;28;20458;-73
2024/02/22 01:19:46;;;;;;;13.07;12.77;;;;;;;;;;4993717;28;20464;-73
2024/02/22 01:22:14;;;;;;;12.97;12.67;;;;;;;;;;4994575;28;20485;-73
2024/02/22 01:24:41;;;;;;;12.50;12.20;;;;;;;;;;4992990;28;20460;-72
2024/02/22 01:27:09;;;;;;;12.97;12.67;;;;;;;;;;4994154;28;21833;-72
2024/02/22 01:29:37;;;;;;;12.53;12.23;;;;;;;;;;4994003;28;20469;-72
2024/02/22 01:32:05;;;;;;;13.13;12.83;;;;;;;;;;4992911;28;20473;-72
2024/02/22 01:34:32;;;;;;;13.40;13.10;;;;;;;;;;4994260;28;20981;-72
2024/02/22 01:36:59;;;;;;;13.80;13.40;;;;;;;;;;4993352;28;20914;-73
2024/02/22 01:39:26;;;;;;;13.97;13.57;;;;;;;;;;4989950;28;20470;-73
2024/02/22 01:41:54;;;;;;;13.77;13.37;;;;;;;;;;4993999;28;20461;-74
2024/02/22 01:44:22;;;;;;;13.77;13.37;;;;;;;;;;4993559;28;21020;-72
2024/02/22 01:46:51;;;;;;;13.30;13.00;;;;;;;;;;4995242;28;20502;-73
2024/02/22 01:49:18;;;;;;;13.80;13.40;;;;;;;;;;4995504;28;21249;-73
2024/02/22 01:51:46;;;;;;;13.23;12.93;;;;;;;;;;4994358;28;20547;-72
2024/02/22 01:54:13;;;;;;;13.57;13.27;;;;;;;;;;4994359;28;20476;-73
2024/02/22 01:56:41;;;;;;;12.90;12.60;;;;;;;;;;4994651;28;20504;-72
2024/02/22 01:59:08;;;;;;;13.33;13.03;;;;;;;;;;4994593;28;20466;-73
2024/02/22 02:01:35;;;;;;;13.40;13.10;;;;;;;;;;5017977;28;21172;-72
2024/02/22 02:04:04;;;;;;;13.63;13.30;;;;;;;;;;5024173;28;20476;-72
2024/02/22 02:06:31;;;;;;;13.50;13.20;;;;;;;;;;5026007;28;20469;-72
2024/02/22 02:08:59;;;;;;;13.27;12.97;;;;;;;;;;5021869;28;20515;-72
2024/02/22 02:11:26;;;;;;;13.30;13.00;;;;;;;;;;5026636;28;20938;-72
2024/02/22 02:13:54;;;;;;;13.43;13.13;;;;;;;;;;5029062;28;20459;-75
2024/02/22 02:16:21;;;;;;;14.00;13.60;;;;;;;;;;5024974;28;20469;-74
2024/02/22 02:18:48;;;;;;;12.60;12.30;;;;;;;;;;5024123;28;20475;-72
2024/02/22 02:21:21;;;;;;;13.50;13.20;;;;;;;;;;5019921;28;20461;-73
2024/02/22 02:23:56;;;;;;;13.90;13.50;;;;;;;;;;5027795;28;20689;-74
2024/02/22 02:26:24;;;;;;;13.47;13.17;;;;;;;;;;5022449;28;20488;-74
2024/02/22 02:28:52;;;;;;;13.63;13.27;;;;;;;;;;5025187;28;20488;-72
2024/02/22 02:31:19;;;;;;;13.87;13.50;;;;;;;;;;5028912;28;20463;-72
2024/02/22 02:33:46;;;;;;;13.50;13.20;;;;;;;;;;5024248;28;20560;-73
2024/02/22 02:36:14;;;;;;;13.43;13.13;;;;;;;;;;5023190;28;20564;-72
2024/02/22 02:38:41;;;;;;;14.43;14.03;;;;;;;;;;5024377;28;20469;-72
2024/02/22 02:41:08;;;;;;;14.50;14.10;;;;;;;;;;5027422;28;20865;-72
2024/02/22 02:43:37;;;;;;;13.97;13.57;;;;;;;;;;5028333;28;20467;-72
2024/02/22 02:46:04;;;;;;;14.43;14.03;;;;;;;;;;5023452;28;20974;-71
2024/02/22 02:48:31;;;;;;;14.93;14.53;;;;;;;;;;5026110;28;20974;-72
2024/02/22 02:50:59;;;;;;;15.27;14.87;;;;;;;;;;5024658;28;20565;-72
2024/02/22 02:53:26;;;;;;;15.30;14.90;;;;;;;;;;5026723;28;20461;-72
2024/02/22 02:55:53;;;;;;;16.13;15.63;;;;;;;;;;5019925;28;20549;-72
2024/02/22 02:58:21;;;;;;;15.30;14.90;;;;;;;;;;5027467;28;20461;-71
2024/02/22 03:00:50;;;;;;;15.40;15.00;;;;;;;;;;5022388;28;20515;-70
2024/02/22 03:03:17;;;;;;;15.93;15.43;;;;;;;;;;5027171;28;20468;-73
2024/02/22 03:05:44;;;;;;;16.30;15.80;;;;;;;;;;5024140;28;20471;-71
2024/02/22 03:08:12;;;;;;;15.90;15.40;;;;;;;;;;5026779;28;20495;-72
2024/02/22 03:10:39;;;;;;;14.60;14.20;;;;;;;;;;5019407;28;20461;-72
2024/02/22 03:13:08;;;;;;;14.87;14.47;;;;;;;;;;5027257;28;20826;-75
2024/02/22 03:15:36;;;;;;;14.70;14.30;;;;;;;;;;5024318;28;20549;-72
2024/02/22 03:18:05;;;;;;;14.47;14.07;;;;;;;;;;5024284;28;20465;-72
2024/02/22 03:20:34;;;;;;;14.97;14.57;;;;;;;;;;5027838;28;20459;-72
2024/02/22 03:23:02;;;;;;;15.03;14.63;;;;;;;;;;5024476;28;21029;-77
2024/02/22 03:25:29;;;;;;;14.47;14.07;;;;;;;;;;5022688;28;20469;-73
2024/02/22 03:27:58;;;;;;;14.30;13.90;;;;;;;;;;5026721;28;20469;-74
2024/02/22 03:30:27;;;;;;;14.43;14.03;;;;;;;;;;5023907;28;20997;-72
2024/02/22 03:32:54;;;;;;;14.83;14.43;;;;;;;;;;5021577;28;20472;-72
2024/02/22 03:35:22;;;;;;;15.47;15.07;;;;;;;;;;5025204;28;20477;-72
2024/02/22 03:37:50;;;;;;;15.40;15.00;;;;;;;;;;5023913;28;20880;-73
2024/02/22 03:40:18;;;;;;;15.00;14.60;;;;;;;;;;5026513;28;20794;-76
2024/02/22 03:42:45;;;;;;;14.83;14.43;;;;;;;;;;5020128;28;20456;-74
2024/02/22 03:45:12;;;;;;;15.13;14.73;;;;;;;;;;5025410;28;20449;-75
2024/02/22 03:47:39;;;;;;;14.10;13.70;;;;;;;;;;5017377;28;21024;-72
2024/02/22 03:50:08;;;;;;;14.00;13.60;;;;;;;;;;5024562;28;20450;-72
2024/02/22 03:52:36;;;;;;;14.10;13.70;;;;;;;;;;5017533;28;20470;-71
2024/02/22 03:55:04;;;;;;;14.40;14.00;;;;;;;;;;5025807;28;21063;-75
2024/02/22 03:57:32;;;;;;;14.50;14.10;;;;;;;;;;5026830;28;20465;-75
2024/02/22 03:59:59;;;;;;;15.00;14.60;;;;;;;;;;5023044;28;20563;-73
2024/02/22 04:02:27;;;;;;;14.07;13.67;;;;;;;;;;5025955;28;20859;-71
2024/02/22 04:04:55;;;;;;;13.90;13.50;;;;;;;;;;5022621;28;20467;-72
2024/02/22 04:07:23;;;;;;;13.93;13.53;;;;;;;;;;5024229;28;20596;-73
2024/02/22 04:09:50;;;;;;;13.73;13.40;;;;;;;;;;5021436;28;20490;-72
2024/02/22 04:12:19;;;;;;;14.67;14.27;;;;;;;;;;5026840;28;20469;-74
2024/02/22 04:14:46;;;;;;;14.23;13.83;;;;;;;;;;5026622;28;20457;-74
2024/02/22 04:17:13;;;;;;;14.87;14.47;;;;;;;;;;5024325;28;20983;-75
2024/02/22 04:19:40;;;;;;;15.17;14.77;;;;;;;;;;5018740;28;20477;-72
2024/02/22 04:22:07;;;;;;;14.73;14.33;;;;;;;;;;5026518;28;20457;-74
2024/02/22 04:24:35;;;;;;;15.33;14.93;;;;;;;;;;5026413;28;20468;-72
2024/02/22 04:27:02;;;;;;;15.50;15.10;;;;;;;;;;5026765;28;20500;-72
2024/02/22 04:29:31;;;;;;;15.70;15.30;;;;;;;;;;5022776;28;20505;-72
2024/02/22 04:31:58;;;;;;;15.10;14.70;;;;;;;;;;5023316;28;20862;-72
2024/02/22 04:34:25;;;;;;;15.70;15.30;;;;;;;;;;5022437;28;20488;-72
2024/02/22 04:36:52;;;;;;;16.03;15.57;;;;;;;;;;5014750;28;20591;-72
2024/02/22 04:39:19;;;;;;;16.40;15.90;;;;;;;;;;5019322;28;20475;-74
2024/02/22 04:41:47;;;;;;;17.17;16.67;;;;;;;;;;5026459;28;20476;-72
2024/02/22 04:44:14;;;;;;;15.30;14.90;;;;;;;;;;5022304;28;20461;-72
2024/02/22 04:46:43;;;;;;;16.13;15.63;;;;;;;;;;5026659;28;20568;-71
2024/02/22 04:49:11;;;;;;;15.67;15.23;;;;;;;;;;5022498;28;20477;-71
2024/02/22 04:51:38;;;;;;;15.67;15.23;;;;;;;;;;5022558;28;20469;-72
2024/02/22 04:54:06;;;;;;;16.30;15.80;;;;;;;;;;5025974;28;20475;-71
2024/02/22 04:56:33;;;;;;;17.10;16.60;;;;;;;;;;5026377;28;20457;-71
2024/02/22 04:59:00;;;;;;;16.33;15.83;;;;;;;;;;5022801;28;20696;-71
2024/02/22 05:01:28;;;;;;;16.80;16.30;;;;;;;;;;5023234;28;20489;-71
2024/02/22 05:03:56;;;;;;;16.93;16.43;;;;;;;;;;5013895;28;20462;-71
2024/02/22 05:06:23;;;;;;;16.70;16.20;;;;;;;;;;5021908;28;20465;-73
2024/02/22 05:08:50;;;;;;;17.43;16.93;;;;;;;;;;5018818;28;20905;-71
2024/02/22 05:11:17;;;;;;;18.13;17.53;;;;;;;;;;5027471;28;21013;-72
2024/02/22 05:13:44;;;;;;;19.17;18.57;;;;;;;;;;5024645;28;20457;-71
2024/02/22 05:16:12;;;;;;;19.30;18.63;;;;;;;;;;5021524;28;20469;-71
2024/02/22 05:18:39;;;;;;;18.87;18.27;;;;;;;;;;5024451;28;20519;-72
2024/02/22 05:21:08;;;;;;;19.83;19.13;;;;;;;;;;5022547;28;20469;-71
2024/02/22 05:23:36;;;;;;;20.03;19.33;;;;;;;;;;5016893;28;20839;-71
2024/02/22 05:26:04;;;;;;;20.87;20.17;;;;;;;;;;5017980;28;20559;-71
2024/02/22 05:28:31;;;;;;;20.27;19.57;;;;;;;;;;5026727;28;21077;-74
2024/02/22 05:30:59;;;;;;;19.70;19.00;;;;;;;;;;5024256;28;20875;-71
2024/02/22 05:33:26;;;;;;;19.70;19.00;;;;;;;;;;5027123;28;20978;-72
2024/02/22 05:35:54;;;;;;;20.70;20.00;;;;;;;;;;5021092;28;20885;-73
2024/02/22 05:38:22;;;;;;;19.90;19.20;;;;;;;;;;5027797;28;20461;-72
2024/02/22 05:40:50;;;;;;;20.20;19.50;;;;;;;;;;5027287;28;20462;-72
2024/02/22 05:43:17;;;;;;;21.33;20.53;;;;;;;;;;5020298;28;20553;-72
2024/02/22 05:45:45;;;;;;;21.53;20.73;;;;;;;;;;5027913;28;20465;-74
2024/02/22 05:48:13;;;;;;;21.60;20.80;;;;;;;;;;5024284;28;20489;-72
2024/02/22 05:50:40;;;;;;;22.17;21.37;;;;;;;;;;5019959;28;20485;-71
2024/02/22 05:53:07;;;;;;;21.33;20.53;;;;;;;;;;5017257;28;20465;-74
2024/02/22 05:55:35;;;;;;;22.07;21.27;;;;;;;;;;5018463;28;20458;-73
2024/02/22 05:58:04;;;;;;;22.27;21.47;;;;;;;;;;5026988;28;20751;-72
2024/02/22 06:00:32;;;;;;;21.23;20.43;;;;;;;;;;5023502;28;20576;-71
2024/02/22 06:02:59;;;;;;;21.67;20.87;;;;;;;;;;5025289;28;20880;-73
2024/02/22 06:05:28;;;;;;;22.53;21.63;;;;;;;;;;5024910;28;20457;-75
2024/02/22 06:07:55;;;;;;;22.33;21.43;;;;;;;;;;5025827;28;21180;-76
2024/02/22 06:10:22;;;;;;;21.70;20.90;;;;;;;;;;5021732;28;20473;-72
2024/02/22 06:12:51;;;;;;;20.90;20.10;;;;;;;;;;5026854;28;21046;-73
2024/02/22 06:15:18;;;;;;;22.23;21.33;;;;;;;;;;5023738;28;20559;-72
2024/02/22 06:17:45;;;;;;;22.20;21.30;;;;;;;;;;5026787;28;20461;-73
2024/02/22 06:20:12;;;;;;;22.33;21.43;;;;;;;;;;5022329;28;20475;-73
2024/02/22 06:22:39;;;;;;;21.70;20.80;;;;;;;;;;5018276;28;20466;-72
2024/02/22 06:25:07;;;;;;;21.03;20.23;;;;;;;;;;5026132;28;20536;-72
2024/02/22 06:27:35;;;;;;;21.80;21.00;;;;;;;;;;5021681;28;20469;-73
2024/02/22 06:30:05;;;;;;;21.00;20.20;;;;;;;;;;5026342;28;21043;-71
2024/02/22 06:32:33;;;;;;;20.73;19.93;;;;;;;;;;5022686;28;20465;-74
2024/02/22 06:35:00;;;;;;;21.23;20.43;;;;;;;;;;5022990;28;20511;-72
2024/02/22 06:37:28;;;;;;;19.10;18.40;;;;;;;;;;5015722;28;20470;-72
2024/02/22 06:39:55;;;;;;;20.87;20.07;;;;;;;;;;5019376;28;20461;-73
2024/02/22 06:42:22;;;;;;;21.10;20.30;;;;;;;;;;5026227;28;20461;-72
2024/02/22 06:44:49;;;;;;;21.37;20.57;;;;;;;;;;5026659;28;20536;-72
2024/02/22 06:47:18;;;;;;;21.07;20.27;;;;;;;;;;5025723;28;20515;-73
2024/02/22 06:49:45;;;;;;;20.30;19.50;;;;;;;;;;5016999;28;20503;-73
2024/02/22 06:52:12;;;;;;;20.40;19.70;;;;;;;;;;5019695;28;20836;-74
2024/02/22 06:54:39;;;;;;;19.17;18.47;;;;;;;;;;5024763;28;20461;-72
2024/02/22 06:57:06;;;;;;;19.37;18.67;;;;;;;;;;5022705;28;20471;-73
2024/02/22 06:59:33;;;;;;;19.17;18.47;;;;;;;;;;5022749;28;21038;-72
2024/02/22 07:02:00;;;;;;;18.37;17.77;;;;;;;;;;5020155;28;20505;-72
2024/02/22 07:04:29;;;;;;;17.63;17.03;;;;;;;;;;5016606;28;20457;-72
2024/02/22 07:06:57;;;;;;;18.73;18.10;;;;;;;;;;5024735;28;20457;-72
2024/02/22 07:09:24;;;;;;;18.23;17.63;;;;;;;;;;5026425;28;20474;-72
2024/02/22 07:11:51;;;;;;;18.57;17.97;;;;;;;;;;5023795;28;20473;-72
2024/02/22 07:14:18;;;;;;;18.17;17.57;;;;;;;;;;5017287;28;20473;-75
2024/02/22 07:16:47;;;;;;;18.97;18.27;;;;;;;;;;5012025;28;20470;-72
2024/02/22 07:19:15;;;;;;;18.80;18.10;;;;;;;;;;5021312;28;20461;-73
2024/02/22 07:21:43;;;;;;;19.00;18.30;;;;;;;;;;5012214;28;20501;-72
2024/02/22 07:24:11;;;;;;;18.23;17.63;;;;;;;;;;5013661;28;20527;-75
2024/02/22 07:26:39;;;;;;;18.87;18.17;;;;;;;;;;5021337;28;20952;-72
2024/02/22 07:29:07;;;;;;;18.53;17.90;;;;;;;;;;5018151;28;20487;-72
2024/02/22 07:31:34;;;;;;;18.50;17.80;;;;;;;;;;5015877;28;20486;-73
2024/02/22 07:34:01;;;;;;;20.07;19.27;;;;;;;;;;5015480;28;20506;-74
2024/02/22 07:36:29;;;;;;;20.97;20.07;;;;;;;;;;5016928;28;20474;-72
2024/02/22 07:38:58;;;;;;;20.73;19.93;;;;;;;;;;5018857;28;20554;-71
2024/02/22 07:41:25;;;;;;;20.67;19.77;;;;;;;;;;5011380;28;20474;-73
2024/02/22 07:43:52;;;;;;;20.57;19.77;;;;;;;;;;5012797;28;20464;-72
2024/02/22 07:46:20;;;;;;;20.07;19.27;;;;;;;;;;5015681;28;20919;-71
2024/02/22 07:48:47;;;;;;;20.37;19.57;;;;;;;;;;5022672;28;20489;-74
2024/02/22 07:51:14;;;;;;;20.87;20.07;;;;;;;;;;5021227;28;20470;-71
2024/02/22 07:53:45;;;;;;;21.50;20.60;;;;;;;;;;5020351;28;20992;-74
2024/02/22 07:56:14;;;;;;;21.00;20.10;;;;;;;;;;5017926;28;20469;-71
2024/02/22 07:58:47;;;;;;;19.60;18.80;;;;;;;;;;5016913;28;20462;-71
2024/02/22 08:01:15;;;;;;;19.00;18.30;;;;;;;;;;5020919;28;20487;-72
2024/02/22 08:03:43;;;;;;;18.83;18.13;;;;;;;;;;5021571;28;20880;-71
2024/02/22 08:06:10;;;;;;;19.73;18.93;;;;;;;;;;5017405;28;20479;-72
2024/02/22 08:08:38;;;;;;;19.57;18.77;;;;;;;;;;5021117;28;20478;-73
2024/02/22 08:11:06;;;;;;;19.43;18.63;;;;;;;;;;5018755;28;21031;-73
2024/02/22 08:13:36;;;;;;;19.50;18.70;;;;;;;;;;5018397;28;20550;-75
2024/02/22 08:16:05;;;;;;;19.27;18.47;;;;;;;;;;5012718;28;20562;-73
2024/02/22 08:18:32;;;;;;;19.53;18.73;;;;;;;;;;5013095;28;20467;-74
2024/02/22 08:21:01;;;;;;;19.00;18.20;;;;;;;;;;5012950;28;21156;-72
2024/02/22 08:23:28;;;;;;;19.97;19.13;;;;;;;;;;5012779;28;20469;-72
2024/02/22 08:25:55;;;;;;;19.90;19.00;;;;;;;;;;5014764;28;20474;-72
2024/02/22 08:28:23;;;;;;;18.87;18.07;;;;;;;;;;5011861;28;20577;-72
2024/02/22 08:30:52;;;;;;;19.50;18.70;;;;;;;;;;5013407;28;20489;-72
2024/02/22 08:33:20;;;;;;;18.90;18.10;;;;;;;;;;5015204;28;20499;-74
2024/02/22 08:35:47;;;;;;;19.13;18.33;;;;;;;;;;5010631;28;20799;-71
2024/02/22 08:38:14;;;;;;;18.43;17.63;;;;;;;;;;5013020;28;20965;-74
2024/02/22 08:40:41;;;;;;;18.37;17.57;;;;;;;;;;5017317;28;20830;-74
2024/02/22 08:43:23;;;;;;;18.20;17.50;;;;;;;;;;5017377;28;20459;-72
2024/02/22 08:45:52;;;;;;;17.53;16.83;;;;;;;;;;5017098;28;20829;-71
2024/02/22 08:48:20;;;;;;;16.80;16.17;;;;;;;;;;5015112;28;20499;-74
2024/02/22 08:51:02;;;;;;;17.10;16.40;;;;;;;;;;5017890;28;20506;-71
2024/02/22 08:53:29;;;;;;;16.33;15.73;;;;;;;;;;5012331;28;20870;-71
2024/02/22 08:55:56;;;;;;;16.50;15.87;;;;;;;;;;5014008;28;20479;-72
2024/02/22 08:58:25;;;;;;;15.80;15.20;;;;;;;;;;5015703;28;21091;-72
2024/02/22 09:00:53;;;;;;;15.60;15.00;;;;;;;;;;5015982;28;20811;-75
2024/02/22 09:03:20;;;;;;;15.77;15.17;;;;;;;;;;5013515;28;21044;-72
2024/02/22 09:05:47;;;;;;;15.07;14.47;;;;;;;;;;5015823;28;20513;-72
2024/02/22 09:08:16;;;;;;;14.97;14.37;;;;;;;;;;5014347;28;20479;-75
2024/02/22 09:10:43;;;;;;;15.50;14.90;;;;;;;;;;5016239;28;20991;-72
2024/02/22 09:13:10;;;;;;;15.13;14.53;;;;;;;;;;5013442;28;20470;-73
2024/02/22 09:15:37;;;;;;;14.80;14.30;;;;;;;;;;5014867;28;20897;-75
2024/02/22 09:18:06;;;;;;;14.60;14.10;;;;;;;;;;5014610;28;20822;-74
2024/02/22 09:20:33;;;;;;;14.70;14.20;;;;;;;;;;5015055;28;20465;-72
2024/02/22 09:23:00;;;;;;;14.43;13.93;;;;;;;;;;5009919;28;21142;-71
2024/02/22 09:25:27;;;;;;;14.30;13.80;;;;;;;;;;5017136;28;20462;-70
2024/02/22 09:27:55;;;;;;;14.60;14.10;;;;;;;;;;5015930;28;20473;-72
2024/02/22 09:30:22;;;;;;;14.87;14.27;;;;;;;;;;5013246;28;20493;-71
2024/02/22 09:32:51;;;;;;;15.43;14.83;;;;;;;;;;5012959;28;20465;-71
2024/02/22 09:35:20;;;;;;;14.70;14.17;;;;;;;;;;5012483;28;20465;-72
2024/02/22 09:37:47;;;;;;;14.73;14.13;;;;;;;;;;5015334;28;20553;-71
2024/02/22 09:40:14;;;;;;;14.00;13.50;;;;;;;;;;5014910;28;20462;-70
2024/02/22 09:42:42;;;;;;;14.10;13.60;;;;;;;;;;5011637;28;20465;-71
2024/02/22 09:45:09;;;;;;;14.80;14.20;;;;;;;;;;5011814;28;20562;-71
2024/02/22 09:47:37;;;;;;;14.17;13.67;;;;;;;;;;5012000;28;20950;-73
2024/02/22 09:50:09;;;;;;;14.50;14.00;;;;;;;;;;5011811;28;20500;-72
2024/02/22 09:52:38;;;;;;;13.80;13.30;;;;;;;;;;5013852;28;20481;-71
2024/02/22 09:55:06;;;;;;;13.70;13.20;;;;;;;;;;5012326;28;20489;-71
2024/02/22 09:57:33;;;;;;;13.10;12.70;;;;;;;;;;5016466;28;20812;-71
2024/02/22 10:00:03;;;;;;;13.20;12.80;;;;;;;;;;5010025;28;22383;-74
2024/02/22 10:02:30;;;;;;;12.90;12.50;;;;;;;;;;5016405;28;20461;-71
2024/02/22 10:05:00;;;;;;;12.37;11.97;;;;;;;;;;5013256;28;20469;-70
2024/02/22 10:07:27;;;;;;;12.40;12.00;;;;;;;;;;5016761;28;20481;-71
2024/02/22 10:09:56;;;;;;;12.90;12.50;;;;;;;;;;5016313;28;21125;-71
2024/02/22 10:12:23;;;;;;;13.17;12.77;;;;;;;;;;5013461;28;20850;-71
2024/02/22 10:14:51;;;;;;;12.90;12.50;;;;;;;;;;5012489;28;20860;-72
2024/02/22 10:17:33;;;;;;;12.53;12.13;;;;;;;;;;5014179;28;21031;-72
2024/02/22 10:20:03;;;;;;;12.30;11.90;;;;;;;;;;5015003;28;21016;-71
2024/02/22 10:22:32;;;;;;;12.57;12.17;;;;;;;;;;5013632;28;20560;-73
2024/02/22 10:25:09;;;;;;;12.10;11.70;;;;;;;;;;5014083;28;20454;-72
2024/02/22 10:27:36;;;;;;;12.67;12.27;;;;;;;;;;5010395;28;20467;-71
2024/02/22 10:30:08;;;;;;;12.87;12.47;;;;;;;;;;5011396;28;20498;-72
2024/02/22 10:32:35;;;;;;;12.57;12.17;;;;;;;;;;5010288;28;20460;-71
2024/02/22 10:35:05;;;;;;;12.50;12.10;;;;;;;;;;5015837;28;20989;-73
2024/02/22 10:37:32;;;;;;;12.40;12.00;;;;;;;;;;5015985;28;20461;-71
2024/02/22 10:40:00;;;;;;;11.90;11.60;;;;;;;;;;5010873;28;20469;-71
2024/02/22 10:42:29;;;;;;;12.30;11.90;;;;;;;;;;5012906;28;20474;-71
2024/02/22 10:44:56;;;;;;;11.90;11.60;;;;;;;;;;5007192;28;20514;-72
2024/02/22 10:47:24;;;;;;;12.23;11.87;;;;;;;;;;5015130;28;21009;-70
2024/02/22 10:49:52;;;;;;;12.30;11.90;;;;;;;;;;5013976;28;20494;-73
2024/02/22 10:52:20;;;;;;;11.80;11.50;;;;;;;;;;5015262;28;20460;-72
2024/02/22 10:54:47;;;;;;;12.00;11.70;;;;;;;;;;5013144;28;20465;-73
2024/02/22 10:57:15;;;;;;;11.70;11.40;;;;;;;;;;5014342;28;20485;-71
2024/02/22 10:59:44;;;;;;;11.80;11.50;;;;;;;;;;5015635;28;20477;-71
2024/02/22 11:02:12;;;;;;;11.90;11.60;;;;;;;;;;5006524;28;20529;-72
2024/02/22 11:04:38;;;;;;;11.70;11.40;;;;;;;;;;5010178;28;20463;-71
2024/02/22 11:07:06;;;;;;;11.20;10.90;;;;;;;;;;5013492;28;21452;-72
2024/02/22 11:09:39;;;;;;;11.67;11.37;;;;;;;;;;5016738;28;20462;-70
2024/02/22 11:12:07;;;;;;;11.80;11.50;;;;;;;;;;5013591;28;20927;-72
2024/02/22 11:14:36;;;;;;;11.30;11.00;;;;;;;;;;5011197;28;20477;-70
2024/02/22 11:17:15;;;;;;;11.17;10.87;;;;;;;;;;5015361;28;20987;-72
2024/02/22 11:19:44;;;;;;;11.40;11.10;;;;;;;;;;5008796;28;20487;-70
2024/02/22 11:22:15;;;;;;;11.50;11.20;;;;;;;;;;5007410;28;20482;-72
2024/02/22 11:24:42;;;;;;;13.00;12.60;;;;;;;;;;5013077;28;20474;-71
2024/02/22 11:27:09;;;;;;;13.30;12.90;;;;;;;;;;5014125;28;20469;-70
2024/02/22 11:29:37;;;;;;;13.63;13.13;;;;;;;;;;5015837;28;20466;-71
2024/02/22 11:32:06;;;;;;;12.67;12.27;;;;;;;;;;5013343;28;20577;-70
2024/02/22 11:34:35;;;;;;;13.00;12.60;;;;;;;;;;5012305;28;20450;-71
2024/02/22 11:37:16;;;;;;;12.50;12.10;;;;;;;;;;5012650;28;20470;-72
2024/02/22 11:39:43;;;;;;;13.07;12.67;;;;;;;;;;5009875;28;20954;-70
2024/02/22 11:42:14;;;;;;;12.50;12.10;;;;;;;;;;5015583;28;20468;-73
2024/02/22 11:44:41;;;;;;;12.47;12.07;;;;;;;;;;5012815;28;20990;-71
2024/02/22 11:47:10;;;;;;;11.20;10.90;;;;;;;;;;5010818;28;20487;-72
2024/02/22 11:49:37;;;;;;;11.10;10.80;;;;;;;;;;5013047;28;20544;-71
2024/02/22 11:52:04;;;;;;;11.13;10.83;;;;;;;;;;5012744;28;20502;-71
2024/02/22 11:54:31;;;;;;;9.80;9.60;;;;;;;;;;5012795;28;20474;-71
2024/02/22 11:57:02;;;;;;;10.30;10.10;;;;;;;;;;5013270;28;20552;-70
2024/02/22 11:59:29;;;;;;;10.10;9.90;;;;;;;;;;5012683;28;20520;-71
2024/02/22 12:01:56;;;;;;;10.67;10.37;;;;;;;;;;5014321;28;20800;-72
2024/02/22 12:04:25;;;;;;;10.30;10.10;;;;;;;;;;5009669;28;20466;-73
2024/02/22 12:06:53;;;;;;;10.40;10.20;;;;;;;;;;5013207;28;20484;-71
2024/02/22 12:09:21;;;;;;;10.10;9.90;;;;;;;;;;5012289;28;20532;-71
2024/02/22 12:11:48;;;;;;;11.00;10.70;;;;;;;;;;5012727;28;20500;-71
2024/02/22 12:14:15;;;;;;;11.37;11.07;;;;;;;;;;5011756;28;20473;-72
2024/02/22 12:16:43;;;;;;;11.17;10.87;;;;;;;;;;5010101;28;20846;-70
2024/02/22 12:19:16;;;;;;;10.43;10.23;;;;;;;;;;5008871;28;20490;-73
2024/02/22 12:21:47;;;;;;;11.30;11.00;;;;;;;;;;5010508;28;20509;-72
2024/02/22 12:24:14;;;;;;;11.50;11.20;;;;;;;;;;5011654;28;20454;-70
2024/02/22 12:26:41;;;;;;;11.30;11.00;;;;;;;;;;5014779;28;20475;-71
2024/02/22 12:29:08;;;;;;;11.20;10.90;;;;;;;;;;5012772;28;20501;-71
2024/02/22 12:31:35;;;;;;;11.20;10.90;;;;;;;;;;5011349;28;20503;-72
2024/02/22 12:34:03;;;;;;;11.63;11.33;;;;;;;;;;5006178;28;20844;-72
2024/02/22 12:36:30;;;;;;;12.07;11.77;;;;;;;;;;5013019;28;20476;-72
2024/02/22 12:38:58;;;;;;;11.50;11.20;;;;;;;;;;5013856;28;20486;-72
2024/02/22 12:41:25;;;;;;;11.67;11.37;;;;;;;;;;5013272;28;20468;-72
2024/02/22 12:43:55;;;;;;;12.00;11.70;;;;;;;;;;5007237;28;20476;-71
2024/02/22 12:46:22;;;;;;;11.87;11.57;;;;;;;;;;5013688;28;20476;-72
2024/02/22 12:48:50;;;;;;;11.50;11.20;;;;;;;;;;5014515;28;20466;-72
2024/02/22 12:51:17;;;;;;;11.47;11.17;;;;;;;;;;5011907;28;20581;-73
2024/02/22 12:53:46;;;;;;;11.40;11.10;;;;;;;;;;5009004;28;20956;-70
2024/02/22 12:56:15;;;;;;;11.90;11.60;;;;;;;;;;5015986;28;20505;-72
2024/02/22 12:58:43;;;;;;;11.70;11.40;;;;;;;;;;5011689;28;20462;-71
2024/02/22 13:01:10;;;;;;;11.43;11.13;;;;;;;;;;5012657;28;21095;-71
2024/02/22 13:03:38;;;;;;;11.80;11.50;;;;;;;;;;5012377;28;20475;-72
2024/02/22 13:06:05;;;;;;;11.80;11.50;;;;;;;;;;5013004;28;20538;-70
2024/02/22 13:08:32;;;;;;;11.50;11.20;;;;;;;;;;5011938;28;20467;-71
2024/02/22 13:11:00;;;;;;;12.00;11.70;;;;;;;;;;5011918;28;20492;-72
2024/02/22 13:13:29;;;;;;;12.00;11.70;;;;;;;;;;5008786;28;20454;-73
2024/02/22 13:15:56;;;;;;;12.10;11.80;;;;;;;;;;5011313;28;20477;-72
2024/02/22 13:18:23;;;;;;;12.20;11.90;;;;;;;;;;5009686;28;20974;-71
2024/02/22 13:20:50;;;;;;;11.70;11.40;;;;;;;;;;5011721;28;20553;-70
2024/02/22 13:23:17;;;;;;;12.80;12.40;;;;;;;;;;5009234;28;20471;-72
2024/02/22 13:25:45;;;;;;;12.90;12.50;;;;;;;;;;5013232;28;20468;-72
2024/02/22 13:28:12;;;;;;;12.70;12.30;;;;;;;;;;5017292;28;21005;-71
2024/02/22 13:30:40;;;;;;;12.67;12.27;;;;;;;;;;5016355;28;20477;-72
2024/02/22 13:33:07;;;;;;;12.40;12.00;;;;;;;;;;5014554;28;20484;-72
2024/02/22 13:35:34;;;;;;;12.70;12.30;;;;;;;;;;5019017;28;20474;-72
2024/02/22 13:38:02;;;;;;;12.53;12.13;;;;;;;;;;5014126;28;21114;-73
2024/02/22 13:40:29;;;;;;;12.50;12.10;;;;;;;;;;5013672;28;20462;-71
2024/02/22 13:42:56;;;;;;;12.60;12.20;;;;;;;;;;5008809;28;20983;-71
2024/02/22 13:45:24;;;;;;;12.60;12.20;;;;;;;;;;5014288;28;20559;-73
2024/02/22 13:47:52;;;;;;;12.70;12.30;;;;;;;;;;5015853;28;20489;-72
2024/02/22 13:50:19;;;;;;;12.50;12.10;;;;;;;;;;5013494;28;20818;-73
2024/02/22 13:52:46;;;;;;;12.10;11.80;;;;;;;;;;5014496;28;20628;-71
2024/02/22 13:55:13;;;;;;;12.70;12.30;;;;;;;;;;5014730;28;20494;-73
2024/02/22 13:57:41;;;;;;;12.40;12.00;;;;;;;;;;5013289;28;20508;-72
2024/02/22 14:00:08;;;;;;;12.43;12.03;;;;;;;;;;5008765;28;20490;-71
2024/02/22 14:02:37;;;;;;;12.90;12.50;;;;;;;;;;5011515;28;20476;-73
2024/02/22 14:05:06;;;;;;;12.87;12.47;;;;;;;;;;5014373;28;20466;-73
2024/02/22 14:07:36;;;;;;;12.57;12.17;;;;;;;;;;5012051;28;20462;-72
2024/02/22 14:10:04;;;;;;;12.37;11.97;;;;;;;;;;5015246;28;20497;-72
2024/02/22 14:12:31;;;;;;;13.00;12.60;;;;;;;;;;5015579;28;20495;-73
2024/02/22 14:14:58;;;;;;;12.50;12.10;;;;;;;;;;5013952;28;20568;-72
2024/02/22 14:17:26;;;;;;;12.30;12.00;;;;;;;;;;5015402;28;20465;-72
2024/02/22 14:19:53;;;;;;;12.53;12.13;;;;;;;;;;5014238;28;20457;-72